Covington, Oklahoma
Current Conditions -  °F | °C
As of 7:50 AM on Wednesday 28 Jan 2015 (Local Time) from KWDG Reporting Station
Broken Clouds Broken Clouds  
Wind Chill: 31°   Ceiling: 20000
Heat Index: 37°   Visibility: 10mi
Dew Point: 36°   Wind: 8mph
Humidity: 93%   Direction: 140°SE
Pressure: 29.94"   Gusts: NA
Location:  36.31°N, 97.59°W
Report Text: KWDG 281350Z 14007KT 10SM BKN200 03/02 A2994
Loading
Personal Weather Stations






























Interactive Weather Map New forecast layout! Learn more

10-Day Weather Forecast

Advertisements
Track Severe Weather on mobile